Aeroporto :
LOGIN :

Iscrizione | Disclaimer

   EN    FR    IT 

 










Sommario :    VFR   VFR Marginale   IFR   IFR Intensivo   IFR Molto Intensivo
Visibilità : 
Base nubi : 
>= 8 km
>= 3000ft
5 / 8 km
1000 / 3000 ft
1500m / 5 km
500 / 1000 ft
800 / 1500m
200 / 500 ft
< 800m
< 200 ft
Simboli :   Temporali  Nebbia  Neve Forte  Precipitazioni Forti  Vento > 20 kt
SIGMETs :   Varie  Temporali  Ghiacco  Turbolenza  Onda orograficha  Ceneri Vulcaniche






- Altitudine del aeroporto : 408 ft
- Codice IATA : KWG


UKDR - Lozuvatka

ULTIMO METAR :
  • 040800Z 10004MPS 4100 BR OVC005 M01/M02 Q1027 R36/19//60 NOSIG

METARs OBSOLETI :
  • 040730Z 11005MPS 4700 BR OVC004 M01/M02 Q1026 R36/19//60 NOSIG
  • 040700Z 11004MPS 2600 BR OVC003 M01/M03 Q1027 R36/19//60 TEMPO 1100 BR OVC002
  • 040630Z 11005MPS 1800 BR OVC003 M01/M03 Q1026 R36/290255 TEMPO 1100 BR OVC002
  • 040600Z 10004MPS 1700 BR OVC003 M01/M03 Q1026 R36/290255 TEMPO 1100 BR OVC002

TAF TAF UKDR
Valido dal 04 a 06 ore il 05 a 06 ore UTC


040503Z 0406/0506 11005MPS 2000 BR OVC004 TX03/0412Z TNM01/0406Z
TEMPO 0406/0408 1100 BR OVC002
BECMG 0408/0410 4000 BR OVC007
FIR UKDV / Europa



MetMap, La meteo Aeronautica in un colpo d'occhio ! - Copyright ORBIFLY Dicembre 2007 - Disclaimer

ORBIFLY MET'MAP TEAM :

Programmazione e sviluppo : Alexandra Zaïnal
Concezione : Baudouin d'Aumeries
Aiuto per la programmazione : Marc-Olivier Méhu
Supporto tecnico e logistico : Manuel Goepfert
Aiuto per la traduzione : Arnaldo La Scala

Contatto : metmap@orbifly.com




FONTI E CREDITI :

   NOAA